createdAt,value
2019-02-21T00:01:32.996Z,76.21
2019-02-21T00:03:59.511Z,75.74
2019-02-21T00:06:26.043Z,75.43
2019-02-21T00:08:52.592Z,75.32
2019-02-21T00:11:19.128Z,75.58
2019-02-21T00:13:45.657Z,76.14
2019-02-21T00:16:12.486Z,76.43
2019-02-21T00:18:39.471Z,76.62
2019-02-21T00:21:06.089Z,76.41
2019-02-21T00:23:32.615Z,75.91
2019-02-21T00:25:59.147Z,75.53
2019-02-21T00:28:26.253Z,75.29
2019-02-21T00:30:53.060Z,75.13
2019-02-21T00:33:19.595Z,74.86
2019-02-21T00:35:46.125Z,74.36
2019-02-21T00:38:12.988Z,74.17
2019-02-21T00:40:39.500Z,74.13
2019-02-21T00:43:05.954Z,74.04
2019-02-21T00:45:32.618Z,73.98
2019-02-21T00:47:59.163Z,73.63
2019-02-21T00:50:25.636Z,73.52
2019-02-21T00:52:52.178Z,73.48
2019-02-21T00:55:18.727Z,73.31
2019-02-21T00:57:45.506Z,73.54
2019-02-21T01:00:12.963Z,73.44
2019-02-21T01:02:39.494Z,73.29
2019-02-21T01:05:06.065Z,73.13
2019-02-21T01:07:32.882Z,72.87
2019-02-21T01:09:59.394Z,72.70
2019-02-21T01:12:25.960Z,72.61
2019-02-21T01:14:52.888Z,72.88
2019-02-21T01:17:19.464Z,72.85
2019-02-21T01:19:45.997Z,73.10
2019-02-21T01:22:13.009Z,73.18
2019-02-21T01:24:40.216Z,73.15
2019-02-21T01:27:06.715Z,72.94
2019-02-21T01:29:33.507Z,72.94
2019-02-21T01:32:00.170Z,73.04
2019-02-21T01:34:26.627Z,73.16
2019-02-21T01:36:53.148Z,73.22
2019-02-21T01:39:19.788Z,73.22
2019-02-21T01:41:46.375Z,72.95
2019-02-21T01:44:12.860Z,72.45
2019-02-21T01:46:39.410Z,72.28
2019-02-21T01:49:05.940Z,72.21
2019-02-21T01:51:32.484Z,72.26
2019-02-21T01:53:58.996Z,72.25
2019-02-21T01:56:25.678Z,72.18
2019-02-21T01:58:52.133Z,72.44
2019-02-21T02:01:18.922Z,72.46
2019-02-21T02:03:45.431Z,72.38
2019-02-21T02:06:12.021Z,72.60
2019-02-21T02:08:38.802Z,72.78
2019-02-21T02:11:05.376Z,72.79
2019-02-21T02:13:31.963Z,72.79
2019-02-21T02:15:58.526Z,72.78
2019-02-21T02:18:25.742Z,72.66
2019-02-21T02:20:55.357Z,72.50
2019-02-21T02:23:27.461Z,72.60
2019-02-21T02:25:54.045Z,72.62
2019-02-21T02:28:22.763Z,72.71
2019-02-21T02:30:51.512Z,72.64
2019-02-21T02:33:18.136Z,72.30
2019-02-21T02:35:45.171Z,72.34
2019-02-21T02:38:17.803Z,72.54
2019-02-21T02:40:47.480Z,72.66
2019-02-21T02:43:15.476Z,72.67
2019-02-21T02:45:58.072Z,72.59
2019-02-21T02:48:26.037Z,72.95
2019-02-21T02:50:52.620Z,72.87
2019-02-21T02:53:19.130Z,72.88
2019-02-21T02:55:46.727Z,72.76
2019-02-21T02:58:13.221Z,72.86
2019-02-21T03:00:39.762Z,73.04
2019-02-21T03:03:06.250Z,73.01
2019-02-21T03:05:32.858Z,73.13
2019-02-21T03:07:59.381Z,73.00
2019-02-21T03:10:26.173Z,73.03
2019-02-21T03:12:52.665Z,72.95
2019-02-21T03:15:19.208Z,73.00
2019-02-21T03:17:45.757Z,73.10
2019-02-21T03:20:15.330Z,73.25
2019-02-21T03:22:43.447Z,73.45
2019-02-21T03:25:10.058Z,73.67
2019-02-21T03:27:37.405Z,73.72
2019-02-21T03:30:05.134Z,73.72
2019-02-21T03:32:33.459Z,73.47
2019-02-21T03:35:00.986Z,73.33
2019-02-21T03:37:29.156Z,73.41
2019-02-21T03:39:56.564Z,73.37
2019-02-21T03:42:23.383Z,73.14
2019-02-21T03:44:49.989Z,73.11
2019-02-21T03:47:17.627Z,72.99
2019-02-21T03:49:49.189Z,73.17
2019-02-21T03:52:16.923Z,73.20
2019-02-21T03:54:43.511Z,73.22
2019-02-21T03:57:12.037Z,73.24
2019-02-21T03:59:38.562Z,73.11
2019-02-21T04:02:05.934Z,73.19
2019-02-21T04:04:38.498Z,73.31
2019-02-21T04:07:05.134Z,73.52
2019-02-21T04:09:42.900Z,73.45
2019-02-21T04:12:09.620Z,73.28
2019-02-21T04:14:36.460Z,73.13
2019-02-21T04:17:03.034Z,73.22
2019-02-21T04:19:35.546Z,73.04
2019-02-21T04:22:02.167Z,73.33
2019-02-21T04:24:33.379Z,73.44
2019-02-21T04:26:59.253Z,73.57
2019-02-21T04:29:31.965Z,73.60
2019-02-21T04:31:58.479Z,73.77
2019-02-21T04:34:25.028Z,74.08
2019-02-21T04:36:51.677Z,74.23
2019-02-21T04:39:18.617Z,74.50
2019-02-21T04:41:45.137Z,74.61
2019-02-21T04:44:11.735Z,74.69
2019-02-21T04:46:38.523Z,74.76
2019-02-21T04:49:05.027Z,74.83
2019-02-21T04:51:31.554Z,75.07
2019-02-21T04:53:58.045Z,75.27
2019-02-21T04:56:36.428Z,75.44
2019-02-21T04:59:03.295Z,75.67
2019-02-21T05:01:29.844Z,75.86
2019-02-21T05:03:56.901Z,75.98
2019-02-21T05:06:23.361Z,76.02
2019-02-21T05:08:49.840Z,75.98
2019-02-21T05:11:18.666Z,75.98
2019-02-21T05:13:47.884Z,76.01
2019-02-21T05:16:14.398Z,75.99
2019-02-21T05:18:40.978Z,75.98
2019-02-21T05:21:07.756Z,76.36
2019-02-21T05:23:36.671Z,76.49
2019-02-21T05:26:02.636Z,76.59
2019-02-21T05:28:30.694Z,76.29
2019-02-21T05:31:01.765Z,76.44
2019-02-21T05:33:45.250Z,76.46
2019-02-21T05:36:32.135Z,76.71
2019-02-21T05:39:26.730Z,76.90
2019-02-21T05:42:15.784Z,76.96
2019-02-21T05:45:01.409Z,77.08
2019-02-21T05:47:39.168Z,77.21
2019-02-21T05:50:23.029Z,77.56
2019-02-21T05:53:14.577Z,77.72
2019-02-21T05:55:52.990Z,77.71
2019-02-21T05:58:28.449Z,77.73
2019-02-21T06:01:01.104Z,77.57
2019-02-21T06:03:37.526Z,77.95
2019-02-21T06:06:21.969Z,78.04
2019-02-21T06:09:06.479Z,77.39
2019-02-21T06:11:43.421Z,77.39
2019-02-21T06:14:33.637Z,77.80
2019-02-21T06:17:14.210Z,77.96
2019-02-21T06:20:03.371Z,77.83
2019-02-21T06:22:56.726Z,77.79
2019-02-21T06:25:33.110Z,77.90
2019-02-21T06:28:13.156Z,77.36
2019-02-21T06:30:47.599Z,77.05
2019-02-21T06:33:16.339Z,76.90
2019-02-21T06:35:44.807Z,76.47
2019-02-21T06:38:12.429Z,76.12
2019-02-21T06:40:41.142Z,76.16
2019-02-21T06:43:07.731Z,76.02
2019-02-21T06:45:34.774Z,75.71
2019-02-21T06:48:04.633Z,75.29
2019-02-21T06:50:32.153Z,75.09
2019-02-21T06:53:08.435Z,74.81
2019-02-21T06:55:35.087Z,74.60
2019-02-21T06:58:09.531Z,74.60
2019-02-21T07:00:36.622Z,74.69
2019-02-21T07:03:03.721Z,74.42
2019-02-21T07:05:30.712Z,74.45
2019-02-21T07:07:57.620Z,74.50
2019-02-21T07:10:26.192Z,74.54
2019-02-21T07:12:53.118Z,74.35
2019-02-21T07:15:19.959Z,74.36
2019-02-21T07:17:49.199Z,74.61
2019-02-21T07:20:15.208Z,74.51
2019-02-21T07:22:41.741Z,74.47
2019-02-21T07:25:22.800Z,74.27
2019-02-21T07:27:49.591Z,74.26
2019-02-21T07:30:20.169Z,74.29
2019-02-21T07:32:44.600Z,73.96
2019-02-21T07:35:11.305Z,73.73
2019-02-21T07:37:37.849Z,73.49
2019-02-21T07:40:04.847Z,73.46
2019-02-21T07:42:33.185Z,73.00
2019-02-21T07:45:00.949Z,72.97
2019-02-21T07:47:27.887Z,72.70
2019-02-21T07:49:55.276Z,72.37
2019-02-21T07:52:21.838Z,72.04
2019-02-21T07:55:01.739Z,71.30
2019-02-21T07:57:36.696Z,70.75
2019-02-21T08:00:07.295Z,70.79
2019-02-21T08:02:34.272Z,70.97
2019-02-21T08:05:02.345Z,70.98
2019-02-21T08:07:29.020Z,71.00
2019-02-21T08:09:55.621Z,71.25
2019-02-21T08:12:23.303Z,71.24
2019-02-21T08:14:52.259Z,71.22
2019-02-21T08:17:18.893Z,70.90
2019-02-21T08:19:45.515Z,70.48
2019-02-21T08:22:12.733Z,70.39
2019-02-21T08:24:39.803Z,70.30
2019-02-21T08:27:06.404Z,70.31
2019-02-21T08:29:33.595Z,70.73
2019-02-21T08:32:00.313Z,70.82
2019-02-21T08:34:48.273Z,71.01
2019-02-21T08:37:20.485Z,70.72
2019-02-21T08:39:47.091Z,70.32
2019-02-21T08:42:13.695Z,69.69
2019-02-21T08:44:40.592Z,69.18
2019-02-21T08:47:07.613Z,68.73
2019-02-21T08:49:34.368Z,67.87
2019-02-21T08:52:01.799Z,67.10
2019-02-21T08:54:28.347Z,66.94
2019-02-21T08:56:54.953Z,67.31
2019-02-21T08:59:23.076Z,67.85
2019-02-21T09:01:49.757Z,68.25
2019-02-21T09:04:26.986Z,68.63
2019-02-21T09:06:46.080Z,68.94
2019-02-21T09:09:13.013Z,68.99
2019-02-21T09:11:39.621Z,68.67
2019-02-21T09:14:06.268Z,68.86
2019-02-21T09:16:32.814Z,69.12
2019-02-21T09:18:59.550Z,69.12
2019-02-21T09:21:26.296Z,69.22
2019-02-21T09:23:52.813Z,69.19
2019-02-21T09:26:21.652Z,69.00
2019-02-21T09:28:48.224Z,69.04
2019-02-21T09:31:16.177Z,69.11
2019-02-21T09:33:43.842Z,68.99
2019-02-21T09:36:10.987Z,69.42
2019-02-21T09:38:37.904Z,69.40
2019-02-21T09:41:04.774Z,69.23
2019-02-21T09:43:31.624Z,69.41
2019-02-21T09:45:58.464Z,69.69
2019-02-21T09:48:26.125Z,69.49
2019-02-21T09:50:52.718Z,69.32
2019-02-21T09:53:19.317Z,69.33
2019-02-21T09:55:46.067Z,69.15
2019-02-21T09:58:12.962Z,69.07
2019-02-21T10:00:42.872Z,68.43
2019-02-21T10:03:12.343Z,68.25
2019-02-21T10:05:39.804Z,67.95
2019-02-21T10:08:06.701Z,67.79
2019-02-21T10:10:33.403Z,67.56
2019-02-21T10:13:00.208Z,67.58
2019-02-21T10:15:26.957Z,67.75
2019-02-21T10:17:55.293Z,67.65
2019-02-21T10:20:22.104Z,67.55
2019-02-21T10:22:49.718Z,67.35
2019-02-21T10:25:18.634Z,66.89
2019-02-21T10:27:46.488Z,66.61
2019-02-21T10:30:14.289Z,66.36
2019-02-21T10:32:40.986Z,66.30
2019-02-21T10:35:07.919Z,66.55
2019-02-21T10:37:34.644Z,66.39
2019-02-21T10:40:03.213Z,66.38
2019-02-21T10:42:31.026Z,66.54
2019-02-21T10:44:57.815Z,66.70
2019-02-21T10:47:24.514Z,67.07
2019-02-21T10:49:51.137Z,67.11
2019-02-21T10:52:18.806Z,67.36
2019-02-21T10:54:45.818Z,67.44
2019-02-21T10:57:12.519Z,67.10
2019-02-21T10:59:46.726Z,67.35
2019-02-21T11:02:09.437Z,67.49
2019-02-21T11:04:38.374Z,67.34
2019-02-21T11:07:06.184Z,67.53
2019-02-21T11:09:33.613Z,67.58
2019-02-21T11:12:03.508Z,67.54
2019-02-21T11:14:30.346Z,67.31
2019-02-21T11:16:56.965Z,67.90
2019-02-21T11:19:27.948Z,67.24
2019-02-21T11:21:54.788Z,66.94
2019-02-21T11:24:22.766Z,66.95
2019-02-21T11:26:49.404Z,66.98
2019-02-21T11:29:19.251Z,67.03
2019-02-21T11:31:46.456Z,66.59
2019-02-21T11:34:13.835Z,66.16
2019-02-21T11:36:41.062Z,65.74
2019-02-21T11:39:07.751Z,65.45
2019-02-21T11:41:34.666Z,65.19
2019-02-21T11:44:02.684Z,64.46
2019-02-21T11:46:30.352Z,63.26
2019-02-21T11:48:57.573Z,62.98
2019-02-21T11:51:24.229Z,62.27
2019-02-21T11:53:52.287Z,60.83
2019-02-21T11:56:19.375Z,59.90
2019-02-21T11:58:46.118Z,58.94
2019-02-21T12:01:16.113Z,58.51
2019-02-21T12:03:53.262Z,57.86
2019-02-21T12:06:24.446Z,57.44
2019-02-21T12:08:55.893Z,56.52
2019-02-21T12:11:25.527Z,55.69
2019-02-21T12:13:53.842Z,55.58
2019-02-21T12:16:25.853Z,56.59
2019-02-21T12:18:54.354Z,57.42
2019-02-21T12:21:21.017Z,57.32
2019-02-21T12:23:47.759Z,57.38
2019-02-21T12:26:30.078Z,56.09
2019-02-21T12:29:01.859Z,55.87
2019-02-21T12:31:33.988Z,56.37
2019-02-21T12:34:05.088Z,56.11
2019-02-21T12:36:32.152Z,53.82
2019-02-21T12:38:58.756Z,54.64
2019-02-21T12:41:29.814Z,55.41
2019-02-21T12:44:03.957Z,55.91
2019-02-21T12:46:36.065Z,55.71
2019-02-21T12:49:04.247Z,54.09
2019-02-21T12:51:31.906Z,52.21
2019-02-21T12:53:58.764Z,50.87
2019-02-21T12:56:31.214Z,51.24
2019-02-21T12:59:04.199Z,51.46
2019-02-21T13:01:34.873Z,49.66
2019-02-21T13:04:11.332Z,49.71
2019-02-21T13:06:51.988Z,49.84
2019-02-21T13:09:26.163Z,50.88
2019-02-21T13:11:54.979Z,52.36
2019-02-21T13:14:21.595Z,52.86
2019-02-21T13:16:49.582Z,53.20
2019-02-21T13:19:16.447Z,54.14
2019-02-21T13:21:43.207Z,54.76
2019-02-21T13:24:10.033Z,54.95
2019-02-21T13:26:36.673Z,55.39
2019-02-21T13:29:03.423Z,55.28
2019-02-21T13:31:30.035Z,55.12
2019-02-21T13:33:56.664Z,55.07
2019-02-21T13:36:23.753Z,55.01
2019-02-21T13:38:50.781Z,54.90
2019-02-21T13:41:18.110Z,55.06
2019-02-21T13:43:45.286Z,55.82
2019-02-21T13:46:11.800Z,55.91
2019-02-21T13:48:38.688Z,55.72
2019-02-21T13:51:06.544Z,54.97
2019-02-21T13:53:33.449Z,54.92
2019-02-21T13:56:02.154Z,54.27
2019-02-21T13:58:28.912Z,54.98
2019-02-21T14:00:55.482Z,55.23
2019-02-21T14:03:22.032Z,55.64
2019-02-21T14:05:48.648Z,56.04
2019-02-21T14:08:17.619Z,56.13
2019-02-21T14:10:44.458Z,56.24
2019-02-21T14:13:11.947Z,57.07
2019-02-21T14:15:38.499Z,57.18
2019-02-21T14:18:05.137Z,57.61
2019-02-21T14:20:31.789Z,57.99
2019-02-21T14:22:58.413Z,57.91
2019-02-21T14:25:24.954Z,58.30
2019-02-21T14:27:51.475Z,58.51
2019-02-21T14:30:18.130Z,58.78
2019-02-21T14:32:44.882Z,58.95
2019-02-21T14:35:11.659Z,58.96
2019-02-21T14:37:38.359Z,59.28
2019-02-21T14:40:06.427Z,59.11
2019-02-21T14:42:33.336Z,59.24
2019-02-21T14:44:59.864Z,59.13
2019-02-21T14:47:26.689Z,59.34
2019-02-21T14:49:53.389Z,59.58
2019-02-21T14:52:20.034Z,59.85
2019-02-21T14:54:46.722Z,60.03
2019-02-21T14:57:15.474Z,60.28
2019-02-21T14:59:44.621Z,60.41
2019-02-21T15:02:10.759Z,60.54
2019-02-21T15:04:38.296Z,60.51
2019-02-21T15:07:06.611Z,60.72
2019-02-21T15:09:33.627Z,60.71
2019-02-21T15:12:00.345Z,61.02
2019-02-21T15:14:27.316Z,60.95
2019-02-21T15:16:54.126Z,61.06
2019-02-21T15:19:21.164Z,61.20
2019-02-21T15:21:48.193Z,61.44
2019-02-21T15:24:15.116Z,61.49
2019-02-21T15:26:41.870Z,61.84
2019-02-21T15:29:08.557Z,61.53
2019-02-21T15:31:35.129Z,61.98
2019-02-21T15:34:01.882Z,62.21
2019-02-21T15:36:37.863Z,62.13
2019-02-21T15:38:57.191Z,62.38
2019-02-21T15:41:24.065Z,62.65
2019-02-21T15:43:50.751Z,62.40
2019-02-21T15:46:17.615Z,62.53
2019-02-21T15:48:44.718Z,62.59
2019-02-21T15:51:11.512Z,62.67
2019-02-21T15:53:38.174Z,62.78
2019-02-21T15:56:04.878Z,63.03
2019-02-21T15:58:31.563Z,62.97
2019-02-21T16:00:58.602Z,63.26
2019-02-21T16:03:25.296Z,63.42
2019-02-21T16:05:51.841Z,63.55
2019-02-21T16:08:18.970Z,63.81
2019-02-21T16:10:45.539Z,63.95
2019-02-21T16:13:12.206Z,63.88
2019-02-21T16:15:38.780Z,64.11
2019-02-21T16:18:05.350Z,64.27
2019-02-21T16:20:31.853Z,64.27
2019-02-21T16:22:58.406Z,64.46
2019-02-21T16:25:24.946Z,64.64
2019-02-21T16:27:51.531Z,64.84
2019-02-21T16:30:18.081Z,64.95
2019-02-21T16:32:44.884Z,65.13
2019-02-21T16:35:11.503Z,65.17
2019-02-21T16:37:37.990Z,65.47
2019-02-21T16:40:08.128Z,65.63
2019-02-21T16:42:34.658Z,65.85
2019-02-21T16:45:01.420Z,66.02
2019-02-21T16:47:27.898Z,66.40
2019-02-21T16:49:54.464Z,66.75
2019-02-21T16:52:22.185Z,66.87
2019-02-21T16:54:49.196Z,67.04
2019-02-21T16:57:15.720Z,67.14
2019-02-21T16:59:43.427Z,67.25
2019-02-21T17:02:10.130Z,67.24
2019-02-21T17:04:36.624Z,67.43
2019-02-21T17:07:13.313Z,67.72
2019-02-21T17:09:36.789Z,67.83
2019-02-21T17:12:03.312Z,67.93
2019-02-21T17:14:29.839Z,68.21
2019-02-21T17:16:57.513Z,68.38
2019-02-21T17:19:24.443Z,68.68
2019-02-21T17:21:51.038Z,68.90
2019-02-21T17:24:17.612Z,68.81
2019-02-21T17:26:45.181Z,69.05
2019-02-21T17:29:11.690Z,69.16
2019-02-21T17:31:38.539Z,69.37
2019-02-21T17:34:05.886Z,69.37
2019-02-21T17:36:32.836Z,69.50
2019-02-21T17:39:04.078Z,69.75
2019-02-21T17:41:30.623Z,69.82
2019-02-21T17:43:57.369Z,70.03
2019-02-21T17:46:24.139Z,70.05
2019-02-21T17:48:50.732Z,70.05
2019-02-21T17:51:17.244Z,70.10
2019-02-21T17:53:43.797Z,70.37
2019-02-21T17:56:10.505Z,70.80
2019-02-21T17:58:37.208Z,70.54
2019-02-21T18:01:04.063Z,70.54
2019-02-21T18:03:30.926Z,70.57
2019-02-21T18:05:57.710Z,70.69
2019-02-21T18:08:24.209Z,70.69
2019-02-21T18:10:51.049Z,70.75
2019-02-21T18:13:17.567Z,71.01
2019-02-21T18:15:44.088Z,71.18
2019-02-21T18:18:10.916Z,71.37
2019-02-21T18:20:37.407Z,71.65
2019-02-21T18:23:04.438Z,71.92
2019-02-21T18:25:36.906Z,72.02
2019-02-21T18:28:03.590Z,72.05
2019-02-21T18:30:30.181Z,72.28
2019-02-21T18:32:56.717Z,72.30
2019-02-21T18:35:23.213Z,72.40
2019-02-21T18:37:49.730Z,72.66
2019-02-21T18:40:18.458Z,72.65
2019-02-21T18:42:44.786Z,72.80
2019-02-21T18:45:11.601Z,73.10
2019-02-21T18:47:38.596Z,73.17
2019-02-21T18:50:05.248Z,73.39
2019-02-21T18:52:31.784Z,73.63
2019-02-21T18:54:58.372Z,73.79
2019-02-21T18:57:31.745Z,73.73
2019-02-21T18:59:58.385Z,74.19
2019-02-21T19:02:28.935Z,74.51
2019-02-21T19:04:59.590Z,74.90
2019-02-21T19:07:26.325Z,75.22
2019-02-21T19:09:53.320Z,75.36
2019-02-21T19:12:19.905Z,75.57
2019-02-21T19:14:46.488Z,75.77
2019-02-21T19:17:13.301Z,75.93
2019-02-21T19:19:40.077Z,75.96
2019-02-21T19:22:06.812Z,75.84
2019-02-21T19:24:44.606Z,75.81
2019-02-21T19:27:24.654Z,75.60
2019-02-21T19:36:50.158Z,75.63
2019-02-21T19:39:50.250Z,75.74
2019-02-21T19:43:10.294Z,75.79
2019-02-21T19:45:46.844Z,75.89
2019-02-21T19:48:19.208Z,75.93
2019-02-21T19:50:59.565Z,76.04
2019-02-21T19:53:35.499Z,76.06
2019-02-21T19:56:08.730Z,76.06
2019-02-21T19:58:38.819Z,75.81
2019-02-21T20:01:23.272Z,75.64
2019-02-21T20:03:53.848Z,75.68
2019-02-21T20:06:21.678Z,75.76
2019-02-21T20:08:54.712Z,75.81
2019-02-21T20:11:22.808Z,75.82
2019-02-21T20:13:52.323Z,75.95
2019-02-21T20:16:19.624Z,75.86
2019-02-21T20:18:46.417Z,75.92
2019-02-21T20:21:13.318Z,76.04
2019-02-21T20:23:40.220Z,76.03
2019-02-21T20:26:17.647Z,75.75
2019-02-21T20:28:35.467Z,75.68
2019-02-21T20:31:02.121Z,75.72
2019-02-21T20:33:29.141Z,75.71
2019-02-21T20:35:56.044Z,75.79
2019-02-21T20:38:31.772Z,75.69
2019-02-21T20:40:52.634Z,75.68
2019-02-21T20:43:19.377Z,75.81
2019-02-21T20:45:53.139Z,75.86
2019-02-21T20:48:17.995Z,75.63
2019-02-21T20:50:56.432Z,75.50
2019-02-21T20:53:15.366Z,75.38
2019-02-21T20:55:44.173Z,75.19
2019-02-21T20:58:11.831Z,75.01
2019-02-21T21:00:38.701Z,75.00
2019-02-21T21:03:05.394Z,74.73
2019-02-21T21:05:32.039Z,74.89
2019-02-21T21:08:12.629Z,74.83
2019-02-21T21:10:39.238Z,74.99
2019-02-21T21:13:06.007Z,75.04
2019-02-21T21:15:34.778Z,75.02
2019-02-21T21:18:01.507Z,75.20
2019-02-21T21:20:29.018Z,75.19
2019-02-21T21:22:55.889Z,74.88
2019-02-21T21:25:22.710Z,74.78
2019-02-21T21:27:50.703Z,74.76
2019-02-21T21:30:17.417Z,74.80
2019-02-21T21:32:46.429Z,74.94
2019-02-21T21:35:13.094Z,74.75
2019-02-21T21:37:39.725Z,74.81
2019-02-21T21:40:08.548Z,75.06
2019-02-21T21:42:35.043Z,75.55
2019-02-21T21:45:01.566Z,75.73
2019-02-21T21:47:30.415Z,75.72
2019-02-21T21:49:56.878Z,75.53
2019-02-21T21:52:25.515Z,75.88
2019-02-21T21:54:52.029Z,76.22
2019-02-21T21:57:18.940Z,76.47
2019-02-21T21:59:45.466Z,76.71
2019-02-21T22:02:12.366Z,76.63
2019-02-21T22:04:39.005Z,76.67
2019-02-21T22:07:05.725Z,76.67
2019-02-21T22:09:34.393Z,76.48
2019-02-21T22:12:00.957Z,76.59
2019-02-21T22:14:27.474Z,76.96
2019-02-21T22:16:56.085Z,77.13
2019-02-21T22:19:22.584Z,77.21
2019-02-21T22:21:49.035Z,77.29
2019-02-21T22:24:15.546Z,77.40
2019-02-21T22:26:42.039Z,77.12
2019-02-21T22:29:08.577Z,77.37
2019-02-21T22:31:35.069Z,77.44
2019-02-21T22:34:01.589Z,77.65
2019-02-21T22:36:28.087Z,77.83
2019-02-21T22:38:54.630Z,78.23
2019-02-21T22:41:21.088Z,78.36
2019-02-21T22:43:47.556Z,78.35
2019-02-21T22:46:14.109Z,78.82
2019-02-21T22:48:47.196Z,78.64
2019-02-21T22:51:10.305Z,79.04
2019-02-21T22:53:36.876Z,79.33
2019-02-21T22:56:03.342Z,79.55
2019-02-21T22:58:29.940Z,79.38
2019-02-21T23:01:23.303Z,79.59
2019-02-21T23:04:14.601Z,79.80
2019-02-21T23:07:06.660Z,79.75
2019-02-21T23:09:34.073Z,79.84
2019-02-21T23:12:00.994Z,79.97
2019-02-21T23:14:27.866Z,80.03
2019-02-21T23:16:54.734Z,79.92
2019-02-21T23:19:24.122Z,80.06
2019-02-21T23:21:50.201Z,79.99
2019-02-21T23:24:16.942Z,80.02
2019-02-21T23:26:43.529Z,79.92
2019-02-21T23:29:10.180Z,79.89
2019-02-21T23:31:36.731Z,80.05
2019-02-21T23:34:03.949Z,80.20
2019-02-21T23:36:30.440Z,80.43
2019-02-21T23:38:57.031Z,80.71
2019-02-21T23:41:23.574Z,80.73
2019-02-21T23:43:50.116Z,80.69
2019-02-21T23:46:16.721Z,80.87
2019-02-21T23:48:43.197Z,81.06
2019-02-21T23:51:09.662Z,80.91
2019-02-21T23:53:36.406Z,81.04
2019-02-21T23:56:02.946Z,81.14
2019-02-21T23:58:29.414Z,81.37
